Time;durP1;ratioP1;P1;durP2;ratioP2;P2;SDS_P1;SDS_P2;PMS_P1;PMS_P2;Temp;Humidity;BMP_temperature;BMP_pressure;BME280_temperature;BME280_humidity;BME280_pressure;Samples;Min_cycle;Max_cycle;Signal;HPM_P1;HPM_P2
2023/04/17 00:00:10;;;;;;;33.30;27.13;;;13.30;99.90;;;;;;5019730;28;20186;-77
2023/04/17 00:02:39;;;;;;;34.33;28.10;;;13.30;99.90;;;;;;5020456;28;20207;-76
2023/04/17 00:05:09;;;;;;;36.40;28.70;;;13.30;99.90;;;;;;5023058;28;20182;-76
2023/04/17 00:07:37;;;;;;;41.17;30.23;;;13.30;99.90;;;;;;5032506;28;20247;-76
2023/04/17 00:10:09;;;;;;;38.53;29.88;;;13.30;99.90;;;;;;5028475;28;20205;-77
2023/04/17 00:12:36;;;;;;;32.70;26.63;;;13.30;99.90;;;;;;5021261;28;20565;-77
2023/04/17 00:15:02;;;;;;;32.72;26.95;;;13.30;99.90;;;;;;5030787;28;20174;-75
2023/04/17 00:17:28;;;;;;;32.00;26.92;;;13.30;99.90;;;;;;5025088;28;20206;-74
2023/04/17 00:19:53;;;;;;;40.80;32.27;;;13.30;99.90;;;;;;5005058;28;20186;-77
2023/04/17 00:22:19;;;;;;;36.40;28.20;;;13.30;99.90;;;;;;5009518;28;20658;-77
2023/04/17 00:24:45;;;;;;;36.30;30.47;;;13.30;99.90;;;;;;4994454;28;20194;-77
2023/04/17 00:27:10;;;;;;;29.27;25.10;;;13.30;99.90;;;;;;5009551;28;20297;-76
2023/04/17 00:29:36;;;;;;;31.80;27.20;;;13.30;99.90;;;;;;5009474;28;20190;-76
2023/04/17 00:32:03;;;;;;;35.17;25.97;;;13.30;99.90;;;;;;4993402;28;20214;-76
2023/04/17 00:34:28;;;;;;;34.20;25.75;;;13.30;99.90;;;;;;4993196;28;20593;-76
2023/04/17 00:36:54;;;;;;;33.10;28.43;;;13.30;99.90;;;;;;4993277;28;20190;-76
2023/04/17 00:39:20;;;;;;;32.63;26.07;;;13.30;99.90;;;;;;4993069;28;20171;-76
2023/04/17 00:41:46;;;;;;;30.70;24.47;;;13.30;99.90;;;;;;4993524;28;20641;-77
2023/04/17 00:44:11;;;;;;;39.17;29.70;;;13.20;99.90;;;;;;5025525;28;20229;-76
2023/04/17 00:46:37;;;;;;;37.67;26.77;;;13.20;99.90;;;;;;5012275;28;20205;-76
2023/04/17 00:49:03;;;;;;;33.37;25.47;;;13.20;99.90;;;;;;5013029;28;20240;-75
2023/04/17 00:51:30;;;;;;;32.93;26.07;;;13.20;99.90;;;;;;5003660;28;20648;-75
2023/04/17 00:53:59;;;;;;;36.35;28.35;;;13.20;99.90;;;;;;5012990;28;20585;-75
2023/04/17 00:56:25;;;;;;;33.47;28.35;;;13.20;99.90;;;;;;5031747;28;20255;-75
2023/04/17 00:58:50;;;;;;;30.83;26.43;;;13.10;99.90;;;;;;5033954;28;20642;-75
2023/04/17 01:01:16;;;;;;;37.93;30.27;;;13.10;99.90;;;;;;4994811;28;20585;-76
2023/04/17 01:03:43;;;;;;;37.45;27.40;;;13.10;99.90;;;;;;4995077;28;20537;-75
2023/04/17 01:06:09;;;;;;;32.25;26.00;;;13.10;99.90;;;;;;5011968;28;20600;-76
2023/04/17 01:08:43;;;;;;;37.80;28.80;;;13.10;99.90;;;;;;5012455;28;20538;-76
2023/04/17 01:11:09;;;;;;;36.17;26.70;;;13.10;99.90;;;;;;4990557;28;20273;-75
2023/04/17 01:13:45;;;;;;;33.35;28.60;;;13.10;99.90;;;;;;4992837;28;20182;-76
2023/04/17 01:16:11;;;;;;;34.83;28.02;;;13.10;99.90;;;;;;5010794;28;20574;-76
2023/04/17 01:18:37;;;;;;;34.87;28.93;;;13.10;99.90;;;;;;4995649;28;20181;-76
2023/04/17 01:21:03;;;;;;;38.63;28.37;;;13.10;99.90;;;;;;4995624;28;20617;-76
2023/04/17 01:23:28;;;;;;;38.53;30.87;;;13.10;99.90;;;;;;4995319;28;20185;-76
2023/04/17 01:25:54;;;;;;;32.50;28.30;;;13.10;99.90;;;;;;5012411;28;20202;-76
2023/04/17 01:28:22;;;;;;;37.72;31.13;;;13.10;99.90;;;;;;4995092;28;20693;-76
2023/04/17 01:30:47;;;;;;;39.87;30.70;;;13.10;99.90;;;;;;5012077;28;20265;-75
2023/04/17 01:33:13;;;;;;;39.13;28.90;;;13.10;99.90;;;;;;5011647;28;20290;-76
2023/04/17 01:35:39;;;;;;;40.77;30.43;;;13.10;99.90;;;;;;5012961;28;20197;-75
2023/04/17 01:38:05;;;;;;;40.30;33.47;;;13.10;99.90;;;;;;5013329;28;20192;-76
2023/04/17 01:40:31;;;;;;;34.80;27.25;;;13.10;99.90;;;;;;4995552;28;20167;-76
2023/04/17 01:42:57;;;;;;;34.80;27.00;;;13.10;99.90;;;;;;5011628;28;20189;-75
2023/04/17 01:45:22;;;;;;;32.97;27.97;;;13.10;99.90;;;;;;5012167;28;20162;-75
2023/04/17 01:47:49;;;;;;;41.17;30.17;;;13.10;99.90;;;;;;5011278;28;20193;-76
2023/04/17 01:50:15;;;;;;;31.25;27.60;;;13.10;99.90;;;;;;5011339;28;20611;-75
2023/04/17 01:52:41;;;;;;;37.40;27.30;;;13.10;99.90;;;;;;5011478;28;20347;-76
2023/04/17 01:55:07;;;;;;;37.65;30.85;;;13.10;99.90;;;;;;4994899;28;20206;-76
2023/04/17 01:57:33;;;;;;;35.13;30.42;;;13.10;99.90;;;;;;5011258;28;20194;-76
2023/04/17 01:59:59;;;;;;;37.50;28.60;;;13.10;99.90;;;;;;4994781;28;20634;-76
2023/04/17 02:02:24;;;;;;;34.70;28.57;;;13.10;99.90;;;;;;5012817;28;20201;-76
2023/04/17 02:04:50;;;;;;;35.37;30.97;;;13.10;99.90;;;;;;5011340;28;20186;-76
2023/04/17 02:07:16;;;;;;;31.27;27.67;;;13.10;99.90;;;;;;5011946;28;20190;-76
2023/04/17 02:09:41;;;;;;;33.33;28.30;;;13.10;99.90;;;;;;5012539;28;20570;-75
2023/04/17 02:12:07;;;;;;;32.03;26.53;;;13.10;99.90;;;;;;5010725;28;20202;-75
2023/04/17 02:14:33;;;;;;;33.53;28.00;;;13.10;99.90;;;;;;4994873;28;20261;-76
2023/04/17 02:16:58;;;;;;;37.10;30.70;;;13.10;99.90;;;;;;5010377;28;20271;-75
2023/04/17 02:19:24;;;;;;;31.07;27.77;;;13.10;99.90;;;;;;4994591;28;20650;-76
2023/04/17 02:21:50;;;;;;;35.40;28.10;;;13.10;99.90;;;;;;4993794;28;20635;-76
2023/04/17 02:24:15;;;;;;;30.77;25.73;;;13.10;99.90;;;;;;5012300;28;20174;-75
2023/04/17 02:26:41;;;;;;;32.47;26.10;;;13.10;99.90;;;;;;5009825;28;20225;-75
2023/04/17 02:29:07;;;;;;;34.73;29.80;;;13.10;99.90;;;;;;5010584;28;20646;-75
2023/04/17 02:31:33;;;;;;;40.77;29.80;;;13.10;99.90;;;;;;4994303;28;20202;-75
2023/04/17 02:33:58;;;;;;;32.40;27.73;;;13.10;99.90;;;;;;4994220;28;20186;-75
2023/04/17 02:36:26;;;;;;;34.70;28.48;;;13.10;99.90;;;;;;4994184;28;20293;-76
2023/04/17 02:38:51;;;;;;;39.55;26.58;;;13.00;99.90;;;;;;5010580;28;20552;-76
2023/04/17 02:41:17;;;;;;;33.93;26.90;;;13.00;99.90;;;;;;5010791;28;20257;-76
2023/04/17 02:43:43;;;;;;;30.67;25.50;;;13.00;99.90;;;;;;5010159;28;20178;-76
2023/04/17 02:46:09;;;;;;;33.17;29.07;;;13.00;99.90;;;;;;4993992;28;20613;-76
2023/04/17 02:48:41;;;;;;;32.97;26.65;;;13.00;99.90;;;;;;5068047;28;20701;-77
2023/04/17 02:51:07;;;;;;;29.50;25.30;;;13.00;99.90;;;;;;5066672;28;20188;-77
2023/04/17 02:53:33;;;;;;;25.47;22.70;;;13.10;99.90;;;;;;5066921;28;20188;-77
2023/04/17 02:55:58;;;;;;;33.33;29.03;;;13.10;99.90;;;;;;5066262;28;20200;-77
2023/04/17 02:58:24;;;;;;;31.80;28.50;;;13.10;99.90;;;;;;5050034;28;20176;-77
2023/04/17 03:00:50;;;;;;;30.30;26.37;;;13.10;99.90;;;;;;5066301;28;20169;-77
2023/04/17 03:03:17;;;;;;;29.98;26.83;;;13.10;99.90;;;;;;5049797;28;20698;-77
2023/04/17 03:05:42;;;;;;;35.80;30.63;;;13.10;99.90;;;;;;5066072;28;20184;-77
2023/04/17 03:08:08;;;;;;;33.40;28.97;;;13.10;99.90;;;;;;5049771;28;20210;-77
2023/04/17 03:10:42;;;;;;;31.80;27.85;;;13.10;99.90;;;;;;5049574;28;20181;-77
2023/04/17 03:13:08;;;;;;;36.07;30.07;;;13.10;99.90;;;;;;5067462;28;20177;-77
2023/04/17 03:15:35;;;;;;;30.87;26.43;;;13.10;99.90;;;;;;5067163;28;20172;-77
2023/04/17 03:18:00;;;;;;;31.05;26.50;;;13.10;99.90;;;;;;5065961;28;20191;-77
2023/04/17 03:20:26;;;;;;;31.50;26.47;;;13.10;99.90;;;;;;5066315;28;20628;-77
2023/04/17 03:22:53;;;;;;;34.72;28.05;;;13.10;99.90;;;;;;5065565;28;20188;-78
2023/04/17 03:25:19;;;;;;;31.03;25.63;;;13.10;99.90;;;;;;5066621;28;20237;-78
2023/04/17 03:27:51;;;;;;;33.05;27.90;;;13.10;99.90;;;;;;5049231;28;21267;-78
2023/04/17 03:30:19;;;;;;;30.77;26.35;;;13.10;99.90;;;;;;5050286;28;20180;-78
2023/04/17 03:32:48;;;;;;;27.55;24.60;;;13.10;99.90;;;;;;5066422;28;20694;-78
2023/04/17 03:35:14;;;;;;;33.57;27.60;;;13.10;99.90;;;;;;5050171;28;20263;-78
2023/04/17 03:37:40;;;;;;;28.60;25.15;;;13.10;99.90;;;;;;5048718;28;20204;-78
2023/04/17 03:40:06;;;;;;;31.93;27.23;;;13.10;99.90;;;;;;5049513;28;20184;-78
2023/04/17 03:42:32;;;;;;;30.85;25.85;;;13.10;99.90;;;;;;5049251;28;20564;-78
2023/04/17 03:44:58;;;;;;;31.80;25.97;;;13.10;99.90;;;;;;5067005;28;20177;-78
2023/04/17 03:47:25;;;;;;;30.80;26.65;;;13.10;99.90;;;;;;5066650;28;20223;-78
2023/04/17 03:49:50;;;;;;;33.17;25.43;;;13.00;99.90;;;;;;5066908;28;20172;-78
2023/04/17 03:52:17;;;;;;;32.63;29.08;;;13.00;99.90;;;;;;5066930;28;20176;-78
2023/04/17 03:54:45;;;;;;;38.65;27.92;;;13.00;99.90;;;;;;5066440;28;20626;-77
2023/04/17 03:57:12;;;;;;;29.13;26.02;;;13.00;99.90;;;;;;5066968;28;20214;-78
2023/04/17 03:59:38;;;;;;;30.00;24.40;;;13.00;99.90;;;;;;5055243;28;20633;-78
2023/04/17 04:02:04;;;;;;;30.48;26.02;;;13.00;99.90;;;;;;5053091;28;20567;-78
2023/04/17 04:04:32;;;;;;;31.08;27.77;;;13.00;99.90;;;;;;5035818;28;20181;-79
2023/04/17 04:07:05;;;;;;;29.55;26.45;;;13.00;99.90;;;;;;5035293;28;20209;-78
2023/04/17 04:09:32;;;;;;;24.98;21.95;;;13.00;99.90;;;;;;5053300;28;20172;-78
2023/04/17 04:11:58;;;;;;;29.63;25.25;;;12.90;99.90;;;;;;5036027;28;20191;-78
2023/04/17 04:14:25;;;;;;;30.02;25.08;;;12.90;99.90;;;;;;5032350;28;20180;-78
2023/04/17 04:16:51;;;;;;;28.20;25.30;;;12.90;99.90;;;;;;5048326;28;20532;-78
2023/04/17 04:19:18;;;;;;;26.13;23.33;;;12.90;99.90;;;;;;5053586;28;20671;-78
2023/04/17 04:21:44;;;;;;;30.20;26.20;;;12.90;99.90;;;;;;5034889;28;20205;-78
2023/04/17 04:24:13;;;;;;;29.85;25.45;;;12.90;99.90;;;;;;5035154;28;20180;-78
2023/04/17 04:26:40;;;;;;;32.88;25.02;;;12.90;99.90;;;;;;5034418;28;20291;-78
2023/04/17 04:29:07;;;;;;;28.27;25.15;;;12.90;99.90;;;;;;5052029;28;20257;-78
2023/04/17 04:31:49;;;;;;;28.98;25.92;;;12.90;99.90;;;;;;5051521;28;20165;-78
2023/04/17 04:34:16;;;;;;;31.20;26.38;;;12.90;99.90;;;;;;5051879;28;20173;-78
2023/04/17 04:36:48;;;;;;;29.35;26.25;;;12.90;99.90;;;;;;5050910;28;20193;-78
2023/04/17 04:39:21;;;;;;;27.25;24.48;;;12.80;99.90;;;;;;5036078;28;20769;-78
2023/04/17 04:41:51;;;;;;;31.63;25.92;;;12.80;99.90;;;;;;5051392;28;20181;-79
2023/04/17 04:44:19;;;;;;;27.35;23.13;;;12.80;99.90;;;;;;5051052;28;20321;-79
2023/04/17 04:46:46;;;;;;;28.10;24.50;;;12.80;99.90;;;;;;5054461;28;20208;-78
2023/04/17 04:49:12;;;;;;;27.67;24.73;;;12.80;99.90;;;;;;5035656;28;20272;-79
2023/04/17 04:51:38;;;;;;;25.60;22.65;;;12.80;99.90;;;;;;5034688;28;20634;-79
2023/04/17 04:54:07;;;;;;;28.45;25.52;;;12.80;99.90;;;;;;5052403;28;20173;-78
2023/04/17 04:56:42;;;;;;;27.33;24.52;;;12.80;99.90;;;;;;5051067;28;20207;-78
2023/04/17 04:59:07;;;;;;;35.42;28.13;;;12.80;99.90;;;;;;5050835;28;20173;-78
2023/04/17 05:01:34;;;;;;;31.63;24.98;;;12.70;99.90;;;;;;5034689;28;20183;-79
2023/04/17 05:04:00;;;;;;;31.90;24.33;;;12.70;99.90;;;;;;5033773;28;20161;-78
2023/04/17 05:06:28;;;;;;;29.73;26.58;;;12.70;99.90;;;;;;5034184;28;20592;-79
2023/04/17 05:08:58;;;;;;;26.55;23.75;;;12.70;99.90;;;;;;5050739;28;20239;-78
2023/04/17 05:11:24;;;;;;;26.95;23.92;;;12.70;99.90;;;;;;5033039;28;20177;-79
2023/04/17 05:13:50;;;;;;;29.43;26.20;;;12.70;99.90;;;;;;5034720;28;20196;-78
2023/04/17 05:16:21;;;;;;;31.70;23.90;;;12.70;99.90;;;;;;5050055;28;20610;-79
2023/04/17 05:18:47;;;;;;;28.00;24.67;;;12.70;99.90;;;;;;5043155;28;20164;-79
2023/04/17 05:21:16;;;;;;;23.80;21.27;;;12.70;99.90;;;;;;5033875;28;20586;-79
2023/04/17 05:23:43;;;;;;;33.80;27.50;;;12.70;99.90;;;;;;5052324;28;20211;-79
2023/04/17 05:26:10;;;;;;;28.13;24.70;;;12.70;99.90;;;;;;5062333;28;20192;-79
2023/04/17 05:28:36;;;;;;;26.25;23.48;;;12.80;99.90;;;;;;5046523;28;20205;-78
2023/04/17 05:31:02;;;;;;;22.27;19.83;;;12.80;99.90;;;;;;5041521;28;20277;-78
2023/04/17 05:33:33;;;;;;;27.40;24.50;;;12.80;99.90;;;;;;5048272;28;20618;-78
2023/04/17 05:36:00;;;;;;;29.83;25.38;;;12.80;99.90;;;;;;5053810;28;20194;-78
2023/04/17 05:38:26;;;;;;;27.85;23.90;;;12.80;99.90;;;;;;5070941;28;20176;-78
2023/04/17 05:40:52;;;;;;;29.60;26.40;;;12.80;99.90;;;;;;5072018;28;20172;-78
2023/04/17 05:43:18;;;;;;;28.55;25.45;;;12.80;99.90;;;;;;5070451;28;20746;-78
2023/04/17 05:45:44;;;;;;;28.37;25.07;;;12.80;99.90;;;;;;5054008;28;20199;-79
2023/04/17 05:48:10;;;;;;;27.23;24.23;;;12.80;99.90;;;;;;5071638;28;20195;-74
2023/04/17 05:50:38;;;;;;;26.27;23.57;;;12.90;99.90;;;;;;5053754;28;21187;-75
2023/04/17 05:53:05;;;;;;;28.55;25.65;;;12.90;99.90;;;;;;5053100;28;20282;-74
2023/04/17 05:55:36;;;;;;;23.63;20.90;;;12.90;99.90;;;;;;5028679;28;20169;-74
2023/04/17 05:58:04;;;;;;;24.10;21.63;;;12.90;99.90;;;;;;5032804;28;20173;-71
2023/04/17 06:00:30;;;;;;;26.65;23.90;;;12.90;99.90;;;;;;5033423;28;20625;-72
2023/04/17 06:03:04;;;;;;;28.10;24.45;;;13.00;99.90;;;;;;5032832;28;20169;-71
2023/04/17 06:05:34;;;;;;;23.10;20.80;;;13.00;99.90;;;;;;5033548;28;20227;-74
2023/04/17 06:08:00;;;;;;;28.25;24.35;;;13.00;99.90;;;;;;5049905;28;20211;-73
2023/04/17 06:10:26;;;;;;;22.35;20.13;;;13.00;99.90;;;;;;5049681;28;20172;-73
2023/04/17 06:12:52;;;;;;;25.50;22.90;;;13.00;99.90;;;;;;5049931;28;20176;-74
2023/04/17 06:15:18;;;;;;;25.48;22.85;;;13.10;99.90;;;;;;5049489;28;20180;-74
2023/04/17 06:17:44;;;;;;;24.93;20.80;;;13.10;99.90;;;;;;5049747;28;20176;-74
2023/04/17 06:20:10;;;;;;;24.23;21.73;;;13.10;99.90;;;;;;5046070;28;20181;-74
2023/04/17 06:22:40;;;;;;;24.98;22.27;;;13.20;99.90;;;;;;5029694;28;20181;-74
2023/04/17 06:25:06;;;;;;;22.15;19.95;;;13.20;99.90;;;;;;5030993;28;20169;-74
2023/04/17 06:27:32;;;;;;;25.13;22.38;;;13.20;99.90;;;;;;5030844;28;20194;-74
2023/04/17 06:29:59;;;;;;;25.55;22.83;;;13.20;99.90;;;;;;5030080;28;20205;-73
2023/04/17 06:32:25;;;;;;;25.48;22.88;;;13.30;99.90;;;;;;5012896;28;20166;-73
2023/04/17 06:34:51;;;;;;;24.35;22.02;;;13.30;99.90;;;;;;5029908;28;20236;-73
2023/04/17 06:37:21;;;;;;;24.40;20.45;;;13.30;99.90;;;;;;5028834;28;20201;-74
2023/04/17 06:39:47;;;;;;;24.57;21.97;;;13.30;99.90;;;;;;5013443;28;20641;-73
2023/04/17 06:42:15;;;;;;;24.33;21.92;;;13.40;99.90;;;;;;5029594;28;20177;-74
2023/04/17 06:44:42;;;;;;;28.27;22.27;;;13.40;99.90;;;;;;5029759;28;20181;-74
2023/04/17 06:47:11;;;;;;;26.23;23.58;;;13.40;99.90;;;;;;5012374;28;20216;-74
2023/04/17 06:49:37;;;;;;;26.83;23.97;;;13.50;99.90;;;;;;5029649;28;20638;-74
2023/04/17 06:52:04;;;;;;;22.67;20.20;;;13.50;99.90;;;;;;5029625;28;20181;-73
2023/04/17 06:54:29;;;;;;;24.85;22.20;;;13.50;99.90;;;;;;5030513;28;20926;-73
2023/04/17 06:56:55;;;;;;;22.90;20.47;;;13.50;99.90;;;;;;5029448;28;20192;-72
2023/04/17 06:59:21;;;;;;;26.30;22.80;;;13.50;99.90;;;;;;5029020;28;20701;-73
2023/04/17 07:01:46;;;;;;;23.73;21.33;;;13.50;99.90;;;;;;5037970;28;20209;-72
2023/04/17 07:04:12;;;;;;;27.90;24.97;;;13.50;99.90;;;;;;5048966;28;20177;-73
2023/04/17 07:06:38;;;;;;;26.03;23.43;;;13.50;99.90;;;;;;5050253;28;20184;-72
2023/04/17 07:09:04;;;;;;;27.03;24.23;;;13.50;99.90;;;;;;5050300;28;20161;-73
2023/04/17 07:11:30;;;;;;;24.33;21.73;;;13.60;99.90;;;;;;5050234;28;20177;-72
2023/04/17 07:13:56;;;;;;;23.33;20.92;;;13.50;99.90;;;;;;5049130;28;20617;-72
2023/04/17 07:16:22;;;;;;;28.73;25.63;;;13.50;99.90;;;;;;5049503;28;20280;-72
2023/04/17 07:18:50;;;;;;;29.37;25.07;;;13.60;99.90;;;;;;5050526;28;20599;-73
2023/04/17 07:21:15;;;;;;;24.83;22.27;;;13.60;99.90;;;;;;5048365;28;20187;-73
2023/04/17 07:23:41;;;;;;;25.20;22.47;;;13.60;99.90;;;;;;5049030;28;20176;-73
2023/04/17 07:26:07;;;;;;;27.60;24.80;;;13.60;99.90;;;;;;5048336;28;20199;-73
2023/04/17 07:28:33;;;;;;;27.63;24.13;;;13.70;99.90;;;;;;5032173;28;20204;-73
2023/04/17 07:30:59;;;;;;;28.50;25.23;;;13.70;99.90;;;;;;5032385;28;20178;-72
2023/04/17 07:33:25;;;;;;;27.40;24.10;;;13.70;99.90;;;;;;5050344;28;20630;-73
2023/04/17 07:35:52;;;;;;;29.00;26.00;;;13.80;99.90;;;;;;5053919;28;20595;-72
2023/04/17 07:38:18;;;;;;;26.85;24.05;;;13.80;99.90;;;;;;5053787;28;20579;-72
2023/04/17 07:40:43;;;;;;;26.33;23.40;;;13.80;99.90;;;;;;5053017;28;20173;-72
2023/04/17 07:43:09;;;;;;;33.83;29.43;;;13.90;99.90;;;;;;5053550;28;20234;-73
2023/04/17 07:45:36;;;;;;;29.33;26.23;;;14.00;99.90;;;;;;5053885;28;20226;-72
2023/04/17 07:48:03;;;;;;;26.67;24.03;;;14.00;99.90;;;;;;5053340;28;20627;-73
2023/04/17 07:50:29;;;;;;;30.93;27.73;;;14.00;99.90;;;;;;5052933;28;20556;-71
2023/04/17 07:52:55;;;;;;;30.83;24.47;;;14.10;99.90;;;;;;5053925;28;20624;-72
2023/04/17 07:55:21;;;;;;;26.27;23.50;;;14.10;99.90;;;;;;5053394;28;20674;-72
2023/04/17 07:57:50;;;;;;;27.93;24.77;;;14.10;99.90;;;;;;5046435;28;20193;-71
2023/04/17 08:00:16;;;;;;;31.80;28.60;;;14.10;99.90;;;;;;5052781;28;20629;-72
2023/04/17 08:02:42;;;;;;;25.50;22.85;;;14.20;99.90;;;;;;5053696;28;20659;-71
2023/04/17 08:05:09;;;;;;;26.97;24.00;;;14.20;99.90;;;;;;5053450;28;20529;-72
2023/04/17 08:07:35;;;;;;;30.33;26.97;;;14.20;99.90;;;;;;5053395;28;20641;-72
2023/04/17 08:10:03;;;;;;;34.73;28.50;;;14.20;99.90;;;;;;5053346;28;20571;-71
2023/04/17 08:12:29;;;;;;;30.10;26.90;;;14.10;99.90;;;;;;5052050;28;21044;-71
2023/04/17 08:14:54;;;;;;;29.37;26.43;;;14.10;99.90;;;;;;5035923;28;20591;-71
2023/04/17 08:17:22;;;;;;;26.90;24.00;;;14.10;99.90;;;;;;5052483;28;20200;-71
2023/04/17 08:19:56;;;;;;;30.10;24.17;;;14.10;99.90;;;;;;5053347;28;20833;-71
2023/04/17 08:22:23;;;;;;;25.60;23.00;;;14.10;99.90;;;;;;5051720;28;20271;-71
2023/04/17 08:24:49;;;;;;;26.63;23.73;;;14.20;99.90;;;;;;5051994;28;20576;-71
2023/04/17 08:27:15;;;;;;;22.90;20.63;;;14.20;99.90;;;;;;5052623;28;20627;-71
2023/04/17 08:29:42;;;;;;;23.17;20.87;;;14.20;99.90;;;;;;5052000;28;20582;-70
2023/04/17 08:32:08;;;;;;;20.43;18.23;;;14.30;99.90;;;;;;5052661;28;21107;-71
2023/04/17 08:34:35;;;;;;;21.90;19.60;;;14.30;99.90;;;;;;5053141;28;20602;-71
2023/04/17 08:37:01;;;;;;;22.03;19.83;;;14.40;99.90;;;;;;5051695;28;20684;-71
2023/04/17 08:39:27;;;;;;;20.23;18.23;;;14.60;99.90;;;;;;5052604;28;20574;-71
2023/04/17 08:42:01;;;;;;;20.70;18.57;;;15.00;99.90;;;;;;5052118;28;20579;-71
2023/04/17 08:44:27;;;;;;;20.10;18.10;;;15.60;99.90;;;;;;5052423;28;20252;-71
2023/04/17 08:46:57;;;;;;;18.17;16.30;;;16.00;99.90;;;;;;5051204;28;20750;-71
2023/04/17 08:49:26;;;;;;;17.27;15.53;;;16.30;99.90;;;;;;5052453;28;20575;-71
2023/04/17 08:51:52;;;;;;;20.13;18.20;;;16.50;99.90;;;;;;5051596;28;20641;-71
2023/04/17 08:54:20;;;;;;;17.90;16.00;;;16.60;99.90;;;;;;5034314;28;20579;-71
2023/04/17 08:56:49;;;;;;;17.43;15.43;;;16.60;99.90;;;;;;5052376;28;20197;-72
2023/04/17 08:59:16;;;;;;;17.43;15.80;;;16.60;99.90;;;;;;5051434;28;20965;-71
2023/04/17 09:02:02;;;;;;;18.10;14.50;;;16.60;99.90;;;;;;5050774;28;20579;-71
2023/04/17 09:04:45;;;;;;;18.03;14.37;;;16.50;99.90;;;;;;5051350;28;20615;-71
2023/04/17 09:07:14;;;;;;;16.23;14.53;;;16.50;99.90;;;;;;5051929;28;20650;-71
2023/04/17 09:09:49;;;;;;;17.53;15.80;;;16.60;99.90;;;;;;5051547;28;20614;-72
2023/04/17 09:12:16;;;;;;;16.40;14.80;;;16.50;99.90;;;;;;5049707;28;20571;-71
2023/04/17 09:14:42;;;;;;;15.50;13.90;;;16.50;99.90;;;;;;5029962;28;20608;-71
2023/04/17 09:17:08;;;;;;;14.10;12.07;;;16.60;99.90;;;;;;5030381;28;20969;-72
2023/04/17 09:19:33;;;;;;;13.63;12.27;;;16.60;99.90;;;;;;5047639;28;20671;-72
2023/04/17 09:22:19;;;;;;;14.73;13.17;;;16.70;99.90;;;;;;5040540;28;20189;-72
2023/04/17 09:24:45;;;;;;;15.93;13.07;;;16.70;99.90;;;;;;5032501;28;20169;-72
2023/04/17 09:27:26;;;;;;;15.50;13.30;;;16.90;99.90;;;;;;5031988;28;21022;-71
2023/04/17 09:30:03;;;;;;;16.03;14.53;;;16.90;99.90;;;;;;5031683;28;21166;-71
2023/04/17 09:32:31;;;;;;;16.17;14.27;;;17.00;99.90;;;;;;5032007;28;20580;-71
2023/04/17 09:35:00;;;;;;;14.93;13.33;;;17.00;99.90;;;;;;5039873;28;20576;-72
2023/04/17 09:37:53;;;;;;;16.83;15.03;;;17.00;99.90;;;;;;5050352;28;20650;-72
2023/04/17 09:40:20;;;;;;;14.17;12.80;;;17.00;99.90;;;;;;5050254;28;20584;-71
2023/04/17 09:43:00;;;;;;;14.07;12.77;;;17.00;99.90;;;;;;5052002;28;20591;-71
2023/04/17 09:45:34;;;;;;;19.67;14.13;;;17.20;99.90;;;;;;5049959;28;20579;-72
2023/04/17 09:48:00;;;;;;;13.83;12.43;;;17.70;99.90;;;;;;5051568;28;20659;-72
2023/04/17 09:50:26;;;;;;;14.10;12.70;;;18.30;99.90;;;;;;5049632;28;20602;-71
2023/04/17 09:52:54;;;;;;;15.73;14.13;;;19.10;99.90;;;;;;5051397;28;20572;-71
2023/04/17 09:55:22;;;;;;;14.30;12.93;;;20.00;99.90;;;;;;5050459;28;20242;-71
2023/04/17 09:57:51;;;;;;;12.67;11.37;;;20.90;99.90;;;;;;5054661;28;20603;-72
2023/04/17 10:00:22;;;;;;;12.10;10.93;;;21.60;99.90;;;;;;5063367;28;20950;-72
2023/04/17 10:02:52;;;;;;;12.90;11.70;;;22.20;99.90;;;;;;5035695;28;20587;-72
2023/04/17 10:05:19;;;;;;;11.30;9.37;;;22.80;99.90;;;;;;5051297;28;20599;-72
2023/04/17 10:07:46;;;;;;;9.40;8.60;;;23.50;99.90;;;;;;5050546;28;20701;-72
2023/04/17 10:10:29;;;;;;;10.57;9.57;;;24.10;99.90;;;;;;5050717;28;20629;-72
2023/04/17 10:13:05;;;;;;;9.87;8.97;;;24.70;99.90;;;;;;5050907;28;21108;-72
2023/04/17 10:15:32;;;;;;;10.20;9.20;;;25.20;99.90;;;;;;5029895;28;20588;-72
2023/04/17 10:18:17;;;;;;;9.37;8.50;;;25.50;99.90;;;;;;5031394;28;20703;-72
2023/04/17 10:20:47;;;;;;;8.90;8.00;;;26.20;99.90;;;;;;5021742;28;20667;-72
2023/04/17 10:23:30;;;;;;;9.10;7.63;;;26.80;99.90;;;;;;5051213;28;20972;-70
2023/04/17 10:26:23;;;;;;;8.30;7.57;;;27.30;97.40;;;;;;5049163;28;20617;-70
2023/04/17 10:28:53;;;;;;;7.43;6.73;;;27.90;98.70;;;;;;5049735;28;21210;-73
2023/04/17 10:31:19;;;;;;;7.10;6.40;;;28.40;99.90;;;;;;5049235;28;20578;-70
2023/04/17 10:33:49;;;;;;;9.90;6.97;;;28.80;99.30;;;;;;5049578;28;20633;-69
2023/04/17 10:36:38;;;;;;;9.03;6.43;;;28.90;96.10;;;;;;5048989;28;20619;-70
2023/04/17 10:39:22;;;;;;;7.57;6.90;;;29.10;95.60;;;;;;5049822;28;20593;-70
2023/04/17 10:42:05;;;;;;;9.07;7.83;;;28.60;91.10;;;;;;5049237;28;20632;-70
2023/04/17 10:44:38;;;;;;;7.37;6.57;;;28.00;75.30;;;;;;5032861;28;21208;-71
2023/04/17 10:47:17;;;;;;;5.57;5.00;;;27.30;79.10;;;;;;5049720;28;20658;-71
2023/04/17 10:49:49;;;;;;;6.83;6.13;;;26.60;82.40;;;;;;5050917;28;20563;-71
2023/04/17 10:52:40;;;;;;;6.43;5.83;;;26.10;78.10;;;;;;5049594;28;20594;-71
2023/04/17 10:55:08;;;;;;;6.30;5.70;;;25.50;76.40;;;;;;5051234;28;20903;-72
2023/04/17 10:57:54;;;;;;;6.70;5.97;;;25.00;80.30;;;;;;5050590;28;20607;-72
2023/04/17 11:00:28;;;;;;;6.53;5.93;;;24.70;82.40;;;;;;5049421;28;20575;-72
2023/04/17 11:02:54;;;;;;;5.77;5.27;;;24.50;83.40;;;;;;5050878;28;20662;-72
2023/04/17 11:05:21;;;;;;;6.80;6.10;;;24.50;87.10;;;;;;5050483;28;20582;-71
2023/04/17 11:07:50;;;;;;;8.37;6.07;;;24.70;87.30;;;;;;5049311;28;20651;-71
2023/04/17 11:10:20;;;;;;;5.97;5.37;;;24.80;88.70;;;;;;5052876;28;20583;-72
2023/04/17 11:12:57;;;;;;;4.90;4.40;;;24.70;86.10;;;;;;5037420;28;20579;-72
2023/04/17 11:15:33;;;;;;;6.17;5.50;;;24.70;79.90;;;;;;5033170;28;20616;-71
2023/04/17 11:18:00;;;;;;;6.03;5.50;;;24.80;83.70;;;;;;5051378;28;20941;-72
2023/04/17 11:20:35;;;;;;;8.97;7.90;;;24.90;84.40;;;;;;5052678;28;20607;-72
2023/04/17 11:23:02;;;;;;;5.83;5.33;;;25.00;76.90;;;;;;5053386;28;20598;-72
2023/04/17 11:25:30;;;;;;;5.80;5.23;;;25.10;81.80;;;;;;5054230;28;20624;-72
2023/04/17 11:27:58;;;;;;;5.87;5.17;;;25.40;83.50;;;;;;5054013;28;20623;-71
2023/04/17 11:30:34;;;;;;;5.30;4.33;;;25.60;80.00;;;;;;5052092;28;20618;-72
2023/04/17 11:33:04;;;;;;;6.30;5.70;;;25.80;80.00;;;;;;5053086;28;20579;-72
2023/04/17 11:35:35;;;;;;;6.60;5.50;;;26.00;81.00;;;;;;5052879;28;20584;-72
2023/04/17 11:38:05;;;;;;;6.10;5.50;;;25.90;75.50;;;;;;5052927;28;20692;-72
2023/04/17 11:40:31;;;;;;;5.93;5.10;;;25.90;75.70;;;;;;5052048;28;20618;-72
2023/04/17 11:43:04;;;;;;;7.50;4.90;;;25.90;74.20;;;;;;5059503;28;21406;-72
2023/04/17 11:45:31;;;;;;;6.27;5.67;;;25.80;72.50;;;;;;5052353;28;20595;-73
2023/04/17 11:47:57;;;;;;;6.43;5.27;;;25.60;67.10;;;;;;5052560;28;20639;-72
2023/04/17 11:50:28;;;;;;;6.57;5.33;;;25.00;64.90;;;;;;5052502;28;20577;-72
2023/04/17 11:53:02;;;;;;;7.30;4.60;;;24.80;66.90;;;;;;5052757;28;20173;-72
2023/04/17 11:55:32;;;;;;;6.73;4.87;;;24.40;58.40;;;;;;5035703;28;20951;-72
2023/04/17 11:58:04;;;;;;;6.57;5.27;;;24.30;67.70;;;;;;5052668;28;20621;-72
2023/04/17 12:00:31;;;;;;;6.43;3.83;;;24.10;66.10;;;;;;5052451;28;20672;-72
2023/04/17 12:03:01;;;;;;;5.53;4.23;;;24.00;69.30;;;;;;5052605;28;20579;-73
2023/04/17 12:05:28;;;;;;;4.70;4.30;;;23.90;67.90;;;;;;5051815;28;20580;-72
2023/04/17 12:08:03;;;;;;;5.40;4.90;;;24.00;70.00;;;;;;5053420;28;20624;-72
2023/04/17 12:10:41;;;;;;;5.80;4.73;;;24.00;68.20;;;;;;5053157;28;20613;-72
2023/04/17 12:13:10;;;;;;;5.87;3.43;;;24.00;67.10;;;;;;5052112;28;20583;-73
2023/04/17 12:15:37;;;;;;;4.03;3.60;;;24.00;68.80;;;;;;5053088;28;20579;-72
2023/04/17 12:18:08;;;;;;;4.33;3.93;;;24.00;68.80;;;;;;5035427;28;20595;-72
2023/04/17 12:20:37;;;;;;;4.47;4.07;;;24.00;69.20;;;;;;5035072;28;20614;-71
2023/04/17 12:23:04;;;;;;;4.37;3.70;;;24.10;68.00;;;;;;5035115;28;20666;-71
2023/04/17 12:25:31;;;;;;;3.67;3.10;;;24.00;67.10;;;;;;5052088;28;20595;-71
2023/04/17 12:27:58;;;;;;;4.13;3.73;;;23.90;66.50;;;;;;5051380;28;20646;-72
2023/04/17 12:30:27;;;;;;;4.90;3.80;;;23.70;65.40;;;;;;5051914;28;20572;-72
2023/04/17 12:32:56;;;;;;;9.60;4.83;;;23.50;64.70;;;;;;5052812;28;20603;-72
2023/04/17 12:35:22;;;;;;;5.50;5.00;;;23.30;59.50;;;;;;5051988;28;20671;-72